sensor_id;sensor_type;location;lat;lon;timestamp;P1;durP1;ratioP1;P2;durP2;ratioP2
11203;SDS011;5659;49.408;11.116;2022-12-29T00:01:47;3.67;;;2.43;;
11203;SDS011;5659;49.408;11.116;2022-12-29T00:04:14;7.10;;;2.10;;
11203;SDS011;5659;49.408;11.116;2022-12-29T00:06:40;2.87;;;1.90;;
11203;SDS011;5659;49.408;11.116;2022-12-29T00:09:06;3.20;;;1.90;;
11203;SDS011;5659;49.408;11.116;2022-12-29T00:11:32;3.87;;;2.20;;
11203;SDS011;5659;49.408;11.116;2022-12-29T00:13:58;3.50;;;2.10;;
11203;SDS011;5659;49.408;11.116;2022-12-29T00:16:43;3.27;;;2.60;;
11203;SDS011;5659;49.408;11.116;2022-12-29T00:19:10;2.87;;;1.80;;
11203;SDS011;5659;49.408;11.116;2022-12-29T00:21:56;2.40;;;2.10;;
11203;SDS011;5659;49.408;11.116;2022-12-29T00:24:42;2.13;;;1.90;;
11203;SDS011;5659;49.408;11.116;2022-12-29T00:27:26;3.07;;;2.13;;
11203;SDS011;5659;49.408;11.116;2022-12-29T00:30:25;3.40;;;2.03;;
11203;SDS011;5659;49.408;11.116;2022-12-29T00:33:11;3.27;;;2.00;;
11203;SDS011;5659;49.408;11.116;2022-12-29T00:35:57;2.30;;;1.90;;
11203;SDS011;5659;49.408;11.116;2022-12-29T00:38:25;4.63;;;2.30;;
11203;SDS011;5659;49.408;11.116;2022-12-29T00:41:10;2.43;;;2.00;;
11203;SDS011;5659;49.408;11.116;2022-12-29T00:43:54;3.77;;;2.00;;
11203;SDS011;5659;49.408;11.116;2022-12-29T00:46:38;2.70;;;2.20;;
11203;SDS011;5659;49.408;11.116;2022-12-29T00:49:05;3.07;;;2.20;;
11203;SDS011;5659;49.408;11.116;2022-12-29T00:51:49;2.90;;;2.30;;
11203;SDS011;5659;49.408;11.116;2022-12-29T00:54:15;2.87;;;1.97;;
11203;SDS011;5659;49.408;11.116;2022-12-29T00:56:41;2.47;;;2.00;;
11203;SDS011;5659;49.408;11.116;2022-12-29T00:59:08;3.43;;;2.40;;
11203;SDS011;5659;49.408;11.116;2022-12-29T01:01:35;2.87;;;2.10;;
11203;SDS011;5659;49.408;11.116;2022-12-29T01:04:01;4.10;;;2.10;;
11203;SDS011;5659;49.408;11.116;2022-12-29T01:06:27;4.30;;;2.10;;
11203;SDS011;5659;49.408;11.116;2022-12-29T01:08:53;3.00;;;2.33;;
11203;SDS011;5659;49.408;11.116;2022-12-29T01:11:38;3.80;;;2.47;;
11203;SDS011;5659;49.408;11.116;2022-12-29T01:14:04;2.30;;;2.10;;
11203;SDS011;5659;49.408;11.116;2022-12-29T01:16:31;5.77;;;2.27;;
11203;SDS011;5659;49.408;11.116;2022-12-29T01:18:57;2.73;;;2.10;;
11203;SDS011;5659;49.408;11.116;2022-12-29T01:21:23;4.90;;;2.13;;
11203;SDS011;5659;49.408;11.116;2022-12-29T01:23:49;4.10;;;2.20;;
11203;SDS011;5659;49.408;11.116;2022-12-29T01:26:16;2.57;;;2.10;;
11203;SDS011;5659;49.408;11.116;2022-12-29T01:28:42;4.77;;;2.23;;
11203;SDS011;5659;49.408;11.116;2022-12-29T01:31:08;2.80;;;2.00;;
11203;SDS011;5659;49.408;11.116;2022-12-29T01:33:34;4.00;;;2.20;;
11203;SDS011;5659;49.408;11.116;2022-12-29T01:36:01;4.63;;;2.20;;
11203;SDS011;5659;49.408;11.116;2022-12-29T01:38:27;2.87;;;2.20;;
11203;SDS011;5659;49.408;11.116;2022-12-29T01:40:53;3.47;;;2.27;;
11203;SDS011;5659;49.408;11.116;2022-12-29T01:43:19;3.87;;;2.40;;
11203;SDS011;5659;49.408;11.116;2022-12-29T01:45:47;4.07;;;2.20;;
11203;SDS011;5659;49.408;11.116;2022-12-29T01:48:14;3.57;;;2.20;;
11203;SDS011;5659;49.408;11.116;2022-12-29T01:50:46;5.40;;;2.30;;
11203;SDS011;5659;49.408;11.116;2022-12-29T01:53:23;5.43;;;2.37;;
11203;SDS011;5659;49.408;11.116;2022-12-29T01:55:53;3.57;;;2.13;;
11203;SDS011;5659;49.408;11.116;2022-12-29T01:58:20;2.80;;;2.50;;
11203;SDS011;5659;49.408;11.116;2022-12-29T02:00:47;2.93;;;2.27;;
11203;SDS011;5659;49.408;11.116;2022-12-29T02:03:13;3.73;;;2.30;;
11203;SDS011;5659;49.408;11.116;2022-12-29T02:05:52;4.20;;;2.13;;
11203;SDS011;5659;49.408;11.116;2022-12-29T02:08:20;2.67;;;2.10;;
11203;SDS011;5659;49.408;11.116;2022-12-29T02:10:48;2.67;;;2.00;;
11203;SDS011;5659;49.408;11.116;2022-12-29T02:13:17;4.93;;;2.20;;
11203;SDS011;5659;49.408;11.116;2022-12-29T02:18:22;3.80;;;2.20;;
11203;SDS011;5659;49.408;11.116;2022-12-29T02:36:31;3.23;;;2.20;;
11203;SDS011;5659;49.408;11.116;2022-12-29T02:39:00;4.63;;;2.10;;
11203;SDS011;5659;49.408;11.116;2022-12-29T02:41:39;3.90;;;2.00;;
11203;SDS011;5659;49.408;11.116;2022-12-29T02:44:13;2.93;;;2.00;;
11203;SDS011;5659;49.408;11.116;2022-12-29T02:47:00;2.83;;;2.13;;
11203;SDS011;5659;49.408;11.116;2022-12-29T02:49:33;3.57;;;2.27;;
11203;SDS011;5659;49.408;11.116;2022-12-29T02:52:06;3.50;;;2.10;;
11203;SDS011;5659;49.408;11.116;2022-12-29T02:54:33;4.43;;;2.07;;
11203;SDS011;5659;49.408;11.116;2022-12-29T02:57:10;2.27;;;2.00;;
11203;SDS011;5659;49.408;11.116;2022-12-29T02:59:37;2.90;;;1.80;;
11203;SDS011;5659;49.408;11.116;2022-12-29T03:04:50;5.67;;;2.20;;
11203;SDS011;5659;49.408;11.116;2022-12-29T03:07:25;3.70;;;2.10;;
11203;SDS011;5659;49.408;11.116;2022-12-29T03:09:59;4.67;;;2.17;;
11203;SDS011;5659;49.408;11.116;2022-12-29T03:15:46;3.10;;;2.40;;
11203;SDS011;5659;49.408;11.116;2022-12-29T03:19:00;2.27;;;2.00;;
11203;SDS011;5659;49.408;11.116;2022-12-29T03:23:44;7.17;;;2.50;;
11203;SDS011;5659;49.408;11.116;2022-12-29T03:26:15;2.80;;;2.13;;
11203;SDS011;5659;49.408;11.116;2022-12-29T03:28:48;3.23;;;2.10;;
11203;SDS011;5659;49.408;11.116;2022-12-29T03:31:16;5.43;;;2.37;;
11203;SDS011;5659;49.408;11.116;2022-12-29T03:33:42;2.33;;;2.13;;
11203;SDS011;5659;49.408;11.116;2022-12-29T03:36:10;3.03;;;2.00;;
11203;SDS011;5659;49.408;11.116;2022-12-29T03:38:42;4.03;;;2.27;;
11203;SDS011;5659;49.408;11.116;2022-12-29T03:41:11;2.93;;;2.07;;
11203;SDS011;5659;49.408;11.116;2022-12-29T03:43:37;5.20;;;2.10;;
11203;SDS011;5659;49.408;11.116;2022-12-29T03:46:03;2.70;;;2.23;;
11203;SDS011;5659;49.408;11.116;2022-12-29T03:48:29;4.40;;;2.07;;
11203;SDS011;5659;49.408;11.116;2022-12-29T03:50:57;4.00;;;2.27;;
11203;SDS011;5659;49.408;11.116;2022-12-29T03:53:23;3.93;;;2.23;;
11203;SDS011;5659;49.408;11.116;2022-12-29T03:55:49;2.43;;;2.10;;
11203;SDS011;5659;49.408;11.116;2022-12-29T03:58:15;3.40;;;2.40;;
11203;SDS011;5659;49.408;11.116;2022-12-29T04:00:41;3.07;;;2.20;;
11203;SDS011;5659;49.408;11.116;2022-12-29T04:03:07;4.57;;;2.30;;
11203;SDS011;5659;49.408;11.116;2022-12-29T04:05:33;2.87;;;1.80;;
11203;SDS011;5659;49.408;11.116;2022-12-29T04:07:59;4.80;;;2.40;;
11203;SDS011;5659;49.408;11.116;2022-12-29T04:10:25;4.20;;;1.97;;
11203;SDS011;5659;49.408;11.116;2022-12-29T04:12:51;2.87;;;1.90;;
11203;SDS011;5659;49.408;11.116;2022-12-29T04:15:17;2.20;;;1.80;;
11203;SDS011;5659;49.408;11.116;2022-12-29T04:17:43;2.83;;;2.20;;
11203;SDS011;5659;49.408;11.116;2022-12-29T04:20:09;3.27;;;2.20;;
11203;SDS011;5659;49.408;11.116;2022-12-29T04:23:00;4.13;;;2.17;;
11203;SDS011;5659;49.408;11.116;2022-12-29T04:25:27;2.97;;;2.00;;
11203;SDS011;5659;49.408;11.116;2022-12-29T04:27:53;3.10;;;2.20;;
11203;SDS011;5659;49.408;11.116;2022-12-29T04:30:19;4.43;;;1.73;;
11203;SDS011;5659;49.408;11.116;2022-12-29T04:32:44;2.97;;;1.90;;
11203;SDS011;5659;49.408;11.116;2022-12-29T04:35:10;4.00;;;2.07;;
11203;SDS011;5659;49.408;11.116;2022-12-29T04:37:36;2.63;;;1.83;;
11203;SDS011;5659;49.408;11.116;2022-12-29T04:40:02;3.60;;;2.13;;
11203;SDS011;5659;49.408;11.116;2022-12-29T04:42:28;4.87;;;2.13;;
11203;SDS011;5659;49.408;11.116;2022-12-29T04:44:54;5.03;;;2.10;;
11203;SDS011;5659;49.408;11.116;2022-12-29T04:47:20;4.97;;;1.90;;
11203;SDS011;5659;49.408;11.116;2022-12-29T04:49:46;3.60;;;2.00;;
11203;SDS011;5659;49.408;11.116;2022-12-29T04:52:12;5.57;;;2.10;;
11203;SDS011;5659;49.408;11.116;2022-12-29T04:54:38;4.43;;;2.20;;
11203;SDS011;5659;49.408;11.116;2022-12-29T04:57:04;3.47;;;2.13;;
11203;SDS011;5659;49.408;11.116;2022-12-29T04:59:30;2.20;;;2.00;;
11203;SDS011;5659;49.408;11.116;2022-12-29T05:01:56;3.90;;;2.00;;
11203;SDS011;5659;49.408;11.116;2022-12-29T05:04:22;3.03;;;2.10;;
11203;SDS011;5659;49.408;11.116;2022-12-29T05:06:48;5.97;;;2.30;;
11203;SDS011;5659;49.408;11.116;2022-12-29T05:09:14;3.57;;;2.47;;
11203;SDS011;5659;49.408;11.116;2022-12-29T05:11:40;3.10;;;1.97;;
11203;SDS011;5659;49.408;11.116;2022-12-29T05:14:06;3.97;;;1.97;;
11203;SDS011;5659;49.408;11.116;2022-12-29T05:16:32;3.30;;;1.93;;
11203;SDS011;5659;49.408;11.116;2022-12-29T05:18:58;4.90;;;2.10;;
11203;SDS011;5659;49.408;11.116;2022-12-29T05:21:24;5.70;;;2.00;;
11203;SDS011;5659;49.408;11.116;2022-12-29T05:23:50;3.80;;;2.03;;
11203;SDS011;5659;49.408;11.116;2022-12-29T05:26:16;4.27;;;2.27;;
11203;SDS011;5659;49.408;11.116;2022-12-29T05:28:42;8.30;;;2.30;;
11203;SDS011;5659;49.408;11.116;2022-12-29T05:31:08;2.40;;;1.90;;
11203;SDS011;5659;49.408;11.116;2022-12-29T05:33:34;4.57;;;1.90;;
11203;SDS011;5659;49.408;11.116;2022-12-29T05:36:04;4.57;;;1.90;;
11203;SDS011;5659;49.408;11.116;2022-12-29T05:38:30;4.20;;;1.90;;
11203;SDS011;5659;49.408;11.116;2022-12-29T05:40:55;6.03;;;2.00;;
11203;SDS011;5659;49.408;11.116;2022-12-29T05:43:21;2.90;;;1.80;;
11203;SDS011;5659;49.408;11.116;2022-12-29T05:45:51;3.40;;;2.07;;
11203;SDS011;5659;49.408;11.116;2022-12-29T05:48:17;3.07;;;1.97;;
11203;SDS011;5659;49.408;11.116;2022-12-29T05:50:46;2.50;;;2.00;;
11203;SDS011;5659;49.408;11.116;2022-12-29T05:53:12;3.63;;;1.87;;
11203;SDS011;5659;49.408;11.116;2022-12-29T05:55:38;2.70;;;2.00;;
11203;SDS011;5659;49.408;11.116;2022-12-29T05:58:04;6.23;;;2.00;;
11203;SDS011;5659;49.408;11.116;2022-12-29T06:00:30;3.83;;;2.00;;
11203;SDS011;5659;49.408;11.116;2022-12-29T06:02:56;4.13;;;1.80;;
11203;SDS011;5659;49.408;11.116;2022-12-29T06:05:22;3.60;;;1.70;;
11203;SDS011;5659;49.408;11.116;2022-12-29T06:07:48;3.70;;;2.20;;
11203;SDS011;5659;49.408;11.116;2022-12-29T06:10:14;3.00;;;1.87;;
11203;SDS011;5659;49.408;11.116;2022-12-29T06:12:40;3.57;;;2.00;;
11203;SDS011;5659;49.408;11.116;2022-12-29T06:15:06;4.43;;;2.00;;
11203;SDS011;5659;49.408;11.116;2022-12-29T06:17:32;2.13;;;1.93;;
11203;SDS011;5659;49.408;11.116;2022-12-29T06:19:58;2.53;;;1.90;;
11203;SDS011;5659;49.408;11.116;2022-12-29T06:22:24;4.10;;;2.03;;
11203;SDS011;5659;49.408;11.116;2022-12-29T06:24:50;2.87;;;2.00;;
11203;SDS011;5659;49.408;11.116;2022-12-29T06:27:16;3.90;;;1.90;;
11203;SDS011;5659;49.408;11.116;2022-12-29T06:29:42;5.10;;;2.03;;
11203;SDS011;5659;49.408;11.116;2022-12-29T06:32:08;2.07;;;1.70;;
11203;SDS011;5659;49.408;11.116;2022-12-29T06:34:34;3.17;;;1.83;;
11203;SDS011;5659;49.408;11.116;2022-12-29T06:37:00;3.00;;;1.90;;
11203;SDS011;5659;49.408;11.116;2022-12-29T06:39:26;4.23;;;1.87;;
11203;SDS011;5659;49.408;11.116;2022-12-29T06:41:52;2.17;;;1.87;;
11203;SDS011;5659;49.408;11.116;2022-12-29T06:44:19;2.03;;;1.80;;
11203;SDS011;5659;49.408;11.116;2022-12-29T06:46:45;2.37;;;1.90;;
11203;SDS011;5659;49.408;11.116;2022-12-29T06:49:11;3.30;;;1.80;;
11203;SDS011;5659;49.408;11.116;2022-12-29T06:51:37;2.07;;;1.80;;
11203;SDS011;5659;49.408;11.116;2022-12-29T06:54:03;2.37;;;1.80;;
11203;SDS011;5659;49.408;11.116;2022-12-29T06:56:29;4.07;;;2.20;;
11203;SDS011;5659;49.408;11.116;2022-12-29T06:58:55;3.67;;;2.00;;
11203;SDS011;5659;49.408;11.116;2022-12-29T07:01:21;5.03;;;2.03;;
11203;SDS011;5659;49.408;11.116;2022-12-29T07:03:47;4.30;;;2.10;;
11203;SDS011;5659;49.408;11.116;2022-12-29T07:06:13;3.53;;;2.10;;
11203;SDS011;5659;49.408;11.116;2022-12-29T07:08:39;4.43;;;2.00;;
11203;SDS011;5659;49.408;11.116;2022-12-29T07:11:05;2.20;;;1.80;;
11203;SDS011;5659;49.408;11.116;2022-12-29T07:13:31;3.83;;;2.10;;
11203;SDS011;5659;49.408;11.116;2022-12-29T07:15:57;3.67;;;2.00;;
11203;SDS011;5659;49.408;11.116;2022-12-29T07:18:23;3.57;;;2.17;;
11203;SDS011;5659;49.408;11.116;2022-12-29T07:20:49;7.13;;;2.10;;
11203;SDS011;5659;49.408;11.116;2022-12-29T07:23:15;4.53;;;2.00;;
11203;SDS011;5659;49.408;11.116;2022-12-29T07:25:41;3.27;;;1.90;;
11203;SDS011;5659;49.408;11.116;2022-12-29T07:28:07;5.30;;;2.60;;
11203;SDS011;5659;49.408;11.116;2022-12-29T07:30:33;4.40;;;2.33;;
11203;SDS011;5659;49.408;11.116;2022-12-29T07:32:58;6.47;;;2.10;;
11203;SDS011;5659;49.408;11.116;2022-12-29T07:35:24;3.40;;;2.07;;
11203;SDS011;5659;49.408;11.116;2022-12-29T07:37:50;5.30;;;2.10;;
11203;SDS011;5659;49.408;11.116;2022-12-29T07:40:16;5.10;;;2.23;;
11203;SDS011;5659;49.408;11.116;2022-12-29T07:42:42;6.53;;;2.10;;
11203;SDS011;5659;49.408;11.116;2022-12-29T07:45:08;2.80;;;2.00;;
11203;SDS011;5659;49.408;11.116;2022-12-29T07:47:35;1.97;;;1.70;;
11203;SDS011;5659;49.408;11.116;2022-12-29T07:50:01;5.97;;;2.10;;
11203;SDS011;5659;49.408;11.116;2022-12-29T07:52:27;2.70;;;1.80;;
11203;SDS011;5659;49.408;11.116;2022-12-29T07:54:52;4.47;;;1.80;;
11203;SDS011;5659;49.408;11.116;2022-12-29T07:57:18;3.20;;;2.07;;
11203;SDS011;5659;49.408;11.116;2022-12-29T07:59:44;5.67;;;2.10;;
11203;SDS011;5659;49.408;11.116;2022-12-29T08:02:10;5.93;;;2.40;;
11203;SDS011;5659;49.408;11.116;2022-12-29T08:04:36;2.80;;;2.07;;
11203;SDS011;5659;49.408;11.116;2022-12-29T08:07:02;3.90;;;1.93;;
11203;SDS011;5659;49.408;11.116;2022-12-29T08:09:28;4.00;;;2.00;;
11203;SDS011;5659;49.408;11.116;2022-12-29T08:11:54;5.33;;;2.50;;
11203;SDS011;5659;49.408;11.116;2022-12-29T08:14:20;3.10;;;2.27;;
11203;SDS011;5659;49.408;11.116;2022-12-29T08:16:46;2.87;;;2.03;;
11203;SDS011;5659;49.408;11.116;2022-12-29T08:19:12;4.07;;;1.77;;
11203;SDS011;5659;49.408;11.116;2022-12-29T08:21:38;9.43;;;2.53;;
11203;SDS011;5659;49.408;11.116;2022-12-29T08:24:05;5.00;;;2.20;;
11203;SDS011;5659;49.408;11.116;2022-12-29T08:26:31;3.67;;;1.80;;
11203;SDS011;5659;49.408;11.116;2022-12-29T08:28:57;3.43;;;2.00;;
11203;SDS011;5659;49.408;11.116;2022-12-29T08:31:23;3.03;;;2.03;;
11203;SDS011;5659;49.408;11.116;2022-12-29T08:33:50;3.27;;;2.00;;
11203;SDS011;5659;49.408;11.116;2022-12-29T08:36:16;3.93;;;2.50;;
11203;SDS011;5659;49.408;11.116;2022-12-29T08:38:42;3.67;;;2.40;;
11203;SDS011;5659;49.408;11.116;2022-12-29T08:41:08;5.27;;;2.30;;
11203;SDS011;5659;49.408;11.116;2022-12-29T08:43:34;4.40;;;2.00;;
11203;SDS011;5659;49.408;11.116;2022-12-29T08:46:00;9.10;;;2.00;;
11203;SDS011;5659;49.408;11.116;2022-12-29T08:48:26;4.87;;;2.33;;
11203;SDS011;5659;49.408;11.116;2022-12-29T08:50:52;2.67;;;1.90;;
11203;SDS011;5659;49.408;11.116;2022-12-29T08:53:19;2.60;;;2.00;;
11203;SDS011;5659;49.408;11.116;2022-12-29T08:55:45;3.00;;;2.00;;
11203;SDS011;5659;49.408;11.116;2022-12-29T08:58:11;4.40;;;2.13;;
11203;SDS011;5659;49.408;11.116;2022-12-29T09:00:39;3.40;;;2.00;;
11203;SDS011;5659;49.408;11.116;2022-12-29T09:03:05;2.80;;;1.92;;
11203;SDS011;5659;49.408;11.116;2022-12-29T09:05:31;3.03;;;1.93;;
11203;SDS011;5659;49.408;11.116;2022-12-29T09:07:57;5.68;;;2.30;;
11203;SDS011;5659;49.408;11.116;2022-12-29T09:10:23;8.30;;;2.13;;
11203;SDS011;5659;49.408;11.116;2022-12-29T09:12:49;7.88;;;2.10;;
11203;SDS011;5659;49.408;11.116;2022-12-29T09:15:15;4.03;;;1.92;;
11203;SDS011;5659;49.408;11.116;2022-12-29T09:17:41;4.90;;;2.40;;
11203;SDS011;5659;49.408;11.116;2022-12-29T09:20:14;4.93;;;2.65;;
11203;SDS011;5659;49.408;11.116;2022-12-29T09:22:40;4.25;;;2.10;;
11203;SDS011;5659;49.408;11.116;2022-12-29T09:25:06;7.05;;;2.28;;
11203;SDS011;5659;49.408;11.116;2022-12-29T09:27:34;5.03;;;2.55;;
11203;SDS011;5659;49.408;11.116;2022-12-29T09:29:59;5.60;;;2.30;;
11203;SDS011;5659;49.408;11.116;2022-12-29T09:32:25;4.53;;;2.13;;
11203;SDS011;5659;49.408;11.116;2022-12-29T09:34:51;6.57;;;2.13;;
11203;SDS011;5659;49.408;11.116;2022-12-29T09:37:17;3.45;;;1.90;;
11203;SDS011;5659;49.408;11.116;2022-12-29T09:39:43;2.95;;;2.03;;
11203;SDS011;5659;49.408;11.116;2022-12-29T09:42:19;4.70;;;1.90;;
11203;SDS011;5659;49.408;11.116;2022-12-29T09:47:14;2.05;;;1.80;;
11203;SDS011;5659;49.408;11.116;2022-12-29T09:52:32;2.40;;;1.80;;
11203;SDS011;5659;49.408;11.116;2022-12-29T09:54:57;3.30;;;1.90;;
11203;SDS011;5659;49.408;11.116;2022-12-29T09:57:25;4.60;;;1.92;;
11203;SDS011;5659;49.408;11.116;2022-12-29T09:59:56;4.63;;;2.50;;
11203;SDS011;5659;49.408;11.116;2022-12-29T10:02:38;6.07;;;2.47;;
11203;SDS011;5659;49.408;11.116;2022-12-29T10:05:12;3.63;;;2.00;;
11203;SDS011;5659;49.408;11.116;2022-12-29T10:07:51;5.60;;;2.30;;
11203;SDS011;5659;49.408;11.116;2022-12-29T10:10:35;3.30;;;2.00;;
11203;SDS011;5659;49.408;11.116;2022-12-29T10:15:48;5.13;;;2.15;;
11203;SDS011;5659;49.408;11.116;2022-12-29T10:21:05;4.88;;;2.00;;
11203;SDS011;5659;49.408;11.116;2022-12-29T10:23:37;3.25;;;2.03;;
11203;SDS011;5659;49.408;11.116;2022-12-29T10:26:04;6.85;;;2.15;;
11203;SDS011;5659;49.408;11.116;2022-12-29T10:28:45;3.90;;;2.03;;
11203;SDS011;5659;49.408;11.116;2022-12-29T10:31:17;5.97;;;2.50;;
11203;SDS011;5659;49.408;11.116;2022-12-29T10:33:45;6.53;;;2.50;;
11203;SDS011;5659;49.408;11.116;2022-12-29T10:36:13;3.60;;;2.40;;
11203;SDS011;5659;49.408;11.116;2022-12-29T10:38:42;4.63;;;2.20;;
11203;SDS011;5659;49.408;11.116;2022-12-29T10:41:14;3.13;;;1.90;;
11203;SDS011;5659;49.408;11.116;2022-12-29T10:43:45;4.40;;;1.92;;
11203;SDS011;5659;49.408;11.116;2022-12-29T10:46:14;5.90;;;2.70;;
11203;SDS011;5659;49.408;11.116;2022-12-29T10:48:41;6.43;;;2.00;;
11203;SDS011;5659;49.408;11.116;2022-12-29T10:51:20;5.78;;;2.00;;
11203;SDS011;5659;49.408;11.116;2022-12-29T10:53:55;3.05;;;1.88;;
11203;SDS011;5659;49.408;11.116;2022-12-29T10:56:35;6.40;;;2.53;;
11203;SDS011;5659;49.408;11.116;2022-12-29T10:59:11;4.85;;;2.38;;
11203;SDS011;5659;49.408;11.116;2022-12-29T11:01:42;5.22;;;2.20;;
11203;SDS011;5659;49.408;11.116;2022-12-29T11:04:28;4.93;;;2.22;;
11203;SDS011;5659;49.408;11.116;2022-12-29T11:06:58;2.40;;;2.17;;
11203;SDS011;5659;49.408;11.116;2022-12-29T11:09:27;8.25;;;2.15;;
11203;SDS011;5659;49.408;11.116;2022-12-29T11:11:54;4.68;;;2.08;;
11203;SDS011;5659;49.408;11.116;2022-12-29T11:14:38;3.47;;;2.08;;
11203;SDS011;5659;49.408;11.116;2022-12-29T11:17:05;3.47;;;2.03;;
11203;SDS011;5659;49.408;11.116;2022-12-29T11:19:32;3.58;;;2.08;;
11203;SDS011;5659;49.408;11.116;2022-12-29T11:24:43;3.78;;;2.13;;
11203;SDS011;5659;49.408;11.116;2022-12-29T11:27:17;4.78;;;2.30;;
11203;SDS011;5659;49.408;11.116;2022-12-29T11:29:45;3.42;;;2.20;;
11203;SDS011;5659;49.408;11.116;2022-12-29T11:32:13;2.65;;;2.03;;
11203;SDS011;5659;49.408;11.116;2022-12-29T11:34:43;4.25;;;2.00;;
11203;SDS011;5659;49.408;11.116;2022-12-29T11:37:12;4.07;;;2.35;;
11203;SDS011;5659;49.408;11.116;2022-12-29T11:42:12;4.05;;;2.15;;
11203;SDS011;5659;49.408;11.116;2022-12-29T11:44:42;3.63;;;2.13;;
11203;SDS011;5659;49.408;11.116;2022-12-29T11:47:09;3.13;;;2.08;;
11203;SDS011;5659;49.408;11.116;2022-12-29T11:49:37;4.78;;;2.20;;
11203;SDS011;5659;49.408;11.116;2022-12-29T11:52:04;4.78;;;2.17;;
11203;SDS011;5659;49.408;11.116;2022-12-29T11:54:33;8.70;;;2.22;;
11203;SDS011;5659;49.408;11.116;2022-12-29T11:57:35;3.88;;;1.98;;
11203;SDS011;5659;49.408;11.116;2022-12-29T11:59:54;3.15;;;2.20;;
11203;SDS011;5659;49.408;11.116;2022-12-29T12:04:48;4.45;;;2.10;;
11203;SDS011;5659;49.408;11.116;2022-12-29T12:07:18;7.97;;;1.98;;
11203;SDS011;5659;49.408;11.116;2022-12-29T12:12:22;4.20;;;2.03;;
11203;SDS011;5659;49.408;11.116;2022-12-29T12:14:56;3.22;;;1.77;;
11203;SDS011;5659;49.408;11.116;2022-12-29T12:17:40;4.28;;;1.90;;
11203;SDS011;5659;49.408;11.116;2022-12-29T12:20:14;4.53;;;1.90;;
11203;SDS011;5659;49.408;11.116;2022-12-29T12:22:47;3.00;;;1.98;;
11203;SDS011;5659;49.408;11.116;2022-12-29T12:27:43;3.63;;;1.98;;
11203;SDS011;5659;49.408;11.116;2022-12-29T12:32:41;3.85;;;2.00;;
11203;SDS011;5659;49.408;11.116;2022-12-29T12:35:20;3.20;;;2.03;;
11203;SDS011;5659;49.408;11.116;2022-12-29T12:37:56;3.38;;;2.00;;
11203;SDS011;5659;49.408;11.116;2022-12-29T12:43:05;3.22;;;1.98;;
11203;SDS011;5659;49.408;11.116;2022-12-29T12:45:41;4.50;;;1.85;;
11203;SDS011;5659;49.408;11.116;2022-12-29T12:53:37;4.40;;;2.17;;
11203;SDS011;5659;49.408;11.116;2022-12-29T13:11:22;3.92;;;2.08;;
11203;SDS011;5659;49.408;11.116;2022-12-29T13:16:31;5.72;;;2.20;;
11203;SDS011;5659;49.408;11.116;2022-12-29T13:19:11;5.00;;;2.50;;
11203;SDS011;5659;49.408;11.116;2022-12-29T13:21:44;3.67;;;2.38;;
11203;SDS011;5659;49.408;11.116;2022-12-29T13:26:47;5.28;;;2.10;;
11203;SDS011;5659;49.408;11.116;2022-12-29T13:32:23;3.92;;;2.28;;
11203;SDS011;5659;49.408;11.116;2022-12-29T13:35:14;2.83;;;2.30;;
11203;SDS011;5659;49.408;11.116;2022-12-29T13:37:47;5.15;;;2.53;;
11203;SDS011;5659;49.408;11.116;2022-12-29T13:40:15;4.70;;;2.30;;
11203;SDS011;5659;49.408;11.116;2022-12-29T13:42:42;4.00;;;2.40;;
11203;SDS011;5659;49.408;11.116;2022-12-29T13:45:13;6.55;;;2.30;;
11203;SDS011;5659;49.408;11.116;2022-12-29T13:47:41;6.40;;;2.50;;
11203;SDS011;5659;49.408;11.116;2022-12-29T13:50:12;5.18;;;2.38;;
11203;SDS011;5659;49.408;11.116;2022-12-29T13:52:43;6.15;;;2.25;;
11203;SDS011;5659;49.408;11.116;2022-12-29T13:55:18;4.75;;;2.50;;
11203;SDS011;5659;49.408;11.116;2022-12-29T14:00:19;3.67;;;2.22;;
11203;SDS011;5659;49.408;11.116;2022-12-29T14:07:43;5.10;;;2.38;;
11203;SDS011;5659;49.408;11.116;2022-12-29T14:10:29;5.47;;;1.90;;
11203;SDS011;5659;49.408;11.116;2022-12-29T14:15:27;4.47;;;2.30;;
11203;SDS011;5659;49.408;11.116;2022-12-29T14:18:02;4.65;;;2.25;;
11203;SDS011;5659;49.408;11.116;2022-12-29T14:20:28;2.40;;;2.00;;
11203;SDS011;5659;49.408;11.116;2022-12-29T14:23:01;5.82;;;2.90;;
11203;SDS011;5659;49.408;11.116;2022-12-29T14:28:37;4.60;;;2.72;;
11203;SDS011;5659;49.408;11.116;2022-12-29T14:31:49;4.30;;;3.13;;
11203;SDS011;5659;49.408;11.116;2022-12-29T14:34:34;4.88;;;2.53;;
11203;SDS011;5659;49.408;11.116;2022-12-29T14:42:06;3.83;;;2.35;;
11203;SDS011;5659;49.408;11.116;2022-12-29T14:44:32;3.25;;;2.30;;
11203;SDS011;5659;49.408;11.116;2022-12-29T14:47:04;4.55;;;2.38;;
11203;SDS011;5659;49.408;11.116;2022-12-29T14:49:32;5.72;;;2.80;;
11203;SDS011;5659;49.408;11.116;2022-12-29T14:54:45;3.57;;;2.40;;
11203;SDS011;5659;49.408;11.116;2022-12-29T14:57:32;6.07;;;2.58;;
11203;SDS011;5659;49.408;11.116;2022-12-29T15:00:00;7.38;;;2.60;;
11203;SDS011;5659;49.408;11.116;2022-12-29T15:02:31;7.53;;;3.10;;
11203;SDS011;5659;49.408;11.116;2022-12-29T15:04:58;4.45;;;2.47;;
11203;SDS011;5659;49.408;11.116;2022-12-29T15:07:26;4.00;;;2.50;;
11203;SDS011;5659;49.408;11.116;2022-12-29T15:10:01;5.15;;;2.53;;
11203;SDS011;5659;49.408;11.116;2022-12-29T15:14:56;4.10;;;2.53;;
11203;SDS011;5659;49.408;11.116;2022-12-29T15:17:29;6.38;;;2.60;;
11203;SDS011;5659;49.408;11.116;2022-12-29T15:19:56;6.53;;;2.70;;
11203;SDS011;5659;49.408;11.116;2022-12-29T15:22:23;7.05;;;2.42;;
11203;SDS011;5659;49.408;11.116;2022-12-29T15:24:50;4.00;;;2.65;;
11203;SDS011;5659;49.408;11.116;2022-12-29T15:27:22;4.63;;;2.47;;
11203;SDS011;5659;49.408;11.116;2022-12-29T15:29:50;6.07;;;2.70;;
11203;SDS011;5659;49.408;11.116;2022-12-29T15:32:22;4.78;;;2.75;;
11203;SDS011;5659;49.408;11.116;2022-12-29T15:34:50;4.93;;;2.63;;
11203;SDS011;5659;49.408;11.116;2022-12-29T15:37:27;6.68;;;3.22;;
11203;SDS011;5659;49.408;11.116;2022-12-29T15:39:53;8.18;;;3.67;;
11203;SDS011;5659;49.408;11.116;2022-12-29T15:44:52;5.63;;;3.03;;
11203;SDS011;5659;49.408;11.116;2022-12-29T15:47:18;5.88;;;2.72;;
11203;SDS011;5659;49.408;11.116;2022-12-29T15:49:48;7.85;;;2.88;;
11203;SDS011;5659;49.408;11.116;2022-12-29T15:52:19;6.57;;;2.83;;
11203;SDS011;5659;49.408;11.116;2022-12-29T15:54:46;7.10;;;2.90;;
11203;SDS011;5659;49.408;11.116;2022-12-29T15:57:17;3.35;;;2.40;;
11203;SDS011;5659;49.408;11.116;2022-12-29T15:59:47;6.93;;;2.53;;
11203;SDS011;5659;49.408;11.116;2022-12-29T16:02:13;7.47;;;2.88;;
11203;SDS011;5659;49.408;11.116;2022-12-29T16:04:39;4.13;;;2.80;;
11203;SDS011;5659;49.408;11.116;2022-12-29T16:07:20;5.13;;;2.92;;
11203;SDS011;5659;49.408;11.116;2022-12-29T16:09:53;4.38;;;2.53;;
11203;SDS011;5659;49.408;11.116;2022-12-29T16:12:20;9.68;;;2.75;;
11203;SDS011;5659;49.408;11.116;2022-12-29T16:14:54;4.97;;;2.60;;
11203;SDS011;5659;49.408;11.116;2022-12-29T16:17:22;3.47;;;2.50;;
11203;SDS011;5659;49.408;11.116;2022-12-29T16:22:54;8.45;;;4.07;;
11203;SDS011;5659;49.408;11.116;2022-12-29T16:25:31;5.05;;;3.22;;
11203;SDS011;5659;49.408;11.116;2022-12-29T16:27:59;5.87;;;3.33;;
11203;SDS011;5659;49.408;11.116;2022-12-29T16:30:26;8.25;;;3.30;;
11203;SDS011;5659;49.408;11.116;2022-12-29T16:32:54;6.68;;;2.75;;
11203;SDS011;5659;49.408;11.116;2022-12-29T16:35:21;9.02;;;3.00;;
11203;SDS011;5659;49.408;11.116;2022-12-29T16:37:48;5.15;;;2.38;;
11203;SDS011;5659;49.408;11.116;2022-12-29T16:42:48;8.32;;;2.83;;
11203;SDS011;5659;49.408;11.116;2022-12-29T16:50:33;8.95;;;2.80;;
11203;SDS011;5659;49.408;11.116;2022-12-29T16:52:59;4.50;;;2.70;;
11203;SDS011;5659;49.408;11.116;2022-12-29T16:55:25;4.70;;;3.00;;
11203;SDS011;5659;49.408;11.116;2022-12-29T16:57:52;4.97;;;3.33;;
11203;SDS011;5659;49.408;11.116;2022-12-29T17:00:22;4.85;;;2.78;;
11203;SDS011;5659;49.408;11.116;2022-12-29T17:02:48;6.05;;;2.80;;